createdAt,value
2018-10-21T00:00:22.953Z,10.10
2018-10-21T00:02:51.973Z,10.10
2018-10-21T00:05:20.934Z,10.01
2018-10-21T00:07:49.893Z,10.18
2018-10-21T00:10:19.044Z,10.24
2018-10-21T00:12:48.030Z,10.29
2018-10-21T00:15:17.305Z,10.23
2018-10-21T00:17:46.245Z,10.29
2018-10-21T00:20:15.184Z,10.23
2018-10-21T00:22:44.281Z,10.40
2018-10-21T00:25:13.242Z,10.42
2018-10-21T00:27:42.337Z,10.38
2018-10-21T00:30:11.335Z,10.51
2018-10-21T00:32:45.629Z,10.37
2018-10-21T00:35:14.611Z,10.49
2018-10-21T00:37:43.762Z,10.36
2018-10-21T00:40:12.786Z,10.25
2018-10-21T00:42:41.843Z,10.42
2018-10-21T00:45:11.592Z,10.18
2018-10-21T00:47:40.920Z,10.34
2018-10-21T00:50:11.005Z,10.45
2018-10-21T00:52:40.295Z,10.58
2018-10-21T00:55:10.035Z,10.70
2018-10-21T00:57:39.283Z,10.56
2018-10-21T01:03:02.204Z,10.50
2018-10-21T01:05:31.109Z,10.44
2018-10-21T01:08:00.193Z,10.48
2018-10-21T01:10:29.105Z,10.49
2018-10-21T01:12:57.997Z,10.34
2018-10-21T01:15:26.979Z,10.40
2018-10-21T01:17:55.933Z,10.24
2018-10-21T01:20:24.883Z,10.06
2018-10-21T01:22:53.760Z,10.05
2018-10-21T01:25:22.625Z,10.14
2018-10-21T01:27:51.559Z,10.14
2018-10-21T01:30:20.446Z,10.18
2018-10-21T01:32:49.381Z,10.35
2018-10-21T01:35:18.311Z,10.08
2018-10-21T01:37:47.245Z,10.19
2018-10-21T01:40:34.467Z,10.34
2018-10-21T01:43:03.701Z,9.89
2018-10-21T01:45:32.628Z,9.97
2018-10-21T01:48:02.792Z,10.17
2018-10-21T01:50:31.812Z,10.07
2018-10-21T01:53:01.812Z,10.15
2018-10-21T01:55:30.683Z,10.20
2018-10-21T01:57:59.926Z,10.02
2018-10-21T02:00:29.411Z,9.83
2018-10-21T02:02:58.828Z,9.85
2018-10-21T02:05:27.902Z,9.82
2018-10-21T02:07:56.898Z,9.93
2018-10-21T02:10:25.883Z,9.83
2018-10-21T02:12:54.864Z,9.84
2018-10-21T02:15:23.882Z,9.83
2018-10-21T02:17:52.759Z,10.23
2018-10-21T02:20:22.359Z,10.14
2018-10-21T02:22:51.489Z,10.17
2018-10-21T02:25:20.479Z,10.31
2018-10-21T02:27:50.083Z,10.39
2018-10-21T02:30:20.213Z,10.14
2018-10-21T02:32:49.852Z,10.13
2018-10-21T02:35:19.222Z,10.25
2018-10-21T02:37:48.499Z,10.20
2018-10-21T02:41:44.514Z,10.26
2018-10-21T02:44:20.962Z,9.93
2018-10-21T02:46:51.178Z,10.28
2018-10-21T02:49:20.550Z,10.09
2018-10-21T02:51:54.939Z,10.12
2018-10-21T02:54:30.027Z,10.24
2018-10-21T02:56:59.049Z,10.26
2018-10-21T02:59:28.309Z,10.41
2018-10-21T03:01:57.179Z,10.39
2018-10-21T03:04:26.157Z,10.28
2018-10-21T03:06:55.030Z,10.14
2018-10-21T03:09:23.950Z,10.40
2018-10-21T03:11:52.855Z,10.20
2018-10-21T03:14:21.773Z,10.27
2018-10-21T03:16:50.675Z,10.35
2018-10-21T03:19:19.564Z,10.38
2018-10-21T03:21:48.462Z,10.48
2018-10-21T03:24:17.650Z,10.36
2018-10-21T03:26:47.332Z,10.40
2018-10-21T03:29:16.211Z,10.38
2018-10-21T03:31:45.139Z,10.49
2018-10-21T03:34:13.993Z,10.32
2018-10-21T03:36:42.885Z,10.42
2018-10-21T03:39:12.036Z,10.33
2018-10-21T03:41:41.526Z,10.40
2018-10-21T03:44:10.419Z,10.56
2018-10-21T03:46:39.318Z,10.58
2018-10-21T03:49:08.230Z,10.49
2018-10-21T03:51:37.113Z,10.52
2018-10-21T03:54:06.020Z,10.44
2018-10-21T03:56:34.986Z,10.43
2018-10-21T03:59:03.838Z,10.39
2018-10-21T04:01:32.716Z,10.41
2018-10-21T04:04:01.665Z,10.28
2018-10-21T04:06:30.558Z,10.21
2018-10-21T04:08:59.447Z,10.46
2018-10-21T04:11:28.386Z,10.25
2018-10-21T04:13:57.246Z,10.27
2018-10-21T04:16:26.177Z,10.11
2018-10-21T04:18:55.050Z,10.11
2018-10-21T04:21:24.042Z,10.24
2018-10-21T04:23:52.942Z,10.10
2018-10-21T04:26:21.812Z,10.19
2018-10-21T04:28:50.704Z,10.20
2018-10-21T04:31:19.619Z,10.20
2018-10-21T04:33:48.527Z,10.09
2018-10-21T04:36:20.533Z,10.27
2018-10-21T04:39:59.468Z,10.12
2018-10-21T04:42:28.365Z,9.99
2018-10-21T04:44:57.363Z,10.02
2018-10-21T04:47:26.235Z,10.13
2018-10-21T04:49:55.122Z,10.17
2018-10-21T04:52:24.168Z,9.91
2018-10-21T04:54:53.050Z,9.85
2018-10-21T04:57:21.946Z,9.99
2018-10-21T04:59:50.794Z,10.02
2018-10-21T05:02:19.679Z,9.93
2018-10-21T05:04:48.572Z,9.95
2018-10-21T05:07:17.419Z,9.83
2018-10-21T05:09:46.319Z,9.92
2018-10-21T05:12:15.184Z,10.00
2018-10-21T05:14:44.109Z,9.96
2018-10-21T05:17:13.023Z,9.98
2018-10-21T05:19:41.889Z,9.80
2018-10-21T05:22:10.935Z,9.70
2018-10-21T05:24:39.802Z,9.89
2018-10-21T05:27:09.111Z,9.68
2018-10-21T05:29:37.946Z,9.67
2018-10-21T05:32:06.795Z,9.72
2018-10-21T05:34:35.695Z,9.67
2018-10-21T05:37:04.898Z,9.75
2018-10-21T05:39:33.838Z,9.72
2018-10-21T05:42:02.785Z,9.65
2018-10-21T05:44:31.635Z,9.65
2018-10-21T05:47:00.605Z,9.70
2018-10-21T05:49:29.472Z,9.78
2018-10-21T05:51:58.331Z,9.55
2018-10-21T05:54:27.534Z,9.40
2018-10-21T05:56:56.408Z,9.45
2018-10-21T05:59:25.286Z,9.50
2018-10-21T06:01:54.195Z,9.26
2018-10-21T06:04:23.035Z,9.38
2018-10-21T06:06:52.655Z,9.24
2018-10-21T06:09:21.654Z,9.25
2018-10-21T06:11:50.505Z,9.24
2018-10-21T06:14:19.544Z,9.26
2018-10-21T06:16:52.726Z,9.19
2018-10-21T06:19:32.063Z,9.49
2018-10-21T06:22:00.970Z,9.21
2018-10-21T06:24:29.835Z,9.33
2018-10-21T06:26:58.700Z,9.46
2018-10-21T06:29:27.901Z,9.51
2018-10-21T06:31:56.766Z,9.53
2018-10-21T06:34:25.711Z,9.64
2018-10-21T06:36:54.714Z,9.76
2018-10-21T06:39:23.493Z,9.68
2018-10-21T06:41:52.668Z,9.77
2018-10-21T06:44:21.580Z,9.85
2018-10-21T06:46:50.458Z,9.84
2018-10-21T06:49:19.561Z,9.84
2018-10-21T06:51:48.420Z,9.87
2018-10-21T06:54:17.319Z,9.92
2018-10-21T06:56:46.343Z,9.88
2018-10-21T06:59:15.825Z,10.04
2018-10-21T07:01:44.809Z,10.26
2018-10-21T07:04:13.758Z,9.97
2018-10-21T07:06:42.626Z,9.98
2018-10-21T07:09:11.533Z,9.95
2018-10-21T07:11:40.416Z,10.20
2018-10-21T07:14:09.301Z,10.30
2018-10-21T07:16:38.399Z,10.11
2018-10-21T07:19:07.101Z,10.16
2018-10-21T07:21:35.995Z,10.08
2018-10-21T07:24:05.410Z,10.16
2018-10-21T07:26:34.328Z,10.11
2018-10-21T07:29:03.234Z,10.14
2018-10-21T07:31:32.159Z,10.34
2018-10-21T07:34:01.088Z,10.39
2018-10-21T07:36:30.029Z,10.41
2018-10-21T07:38:58.864Z,10.44
2018-10-21T07:41:27.744Z,10.42
2018-10-21T07:43:56.674Z,10.48
2018-10-21T07:46:25.561Z,10.57
2018-10-21T07:48:54.429Z,10.65
2018-10-21T07:51:23.373Z,10.68
2018-10-21T07:53:52.275Z,10.72
2018-10-21T07:56:21.203Z,10.83
2018-10-21T07:58:50.101Z,10.85
2018-10-21T08:01:19.014Z,10.90
2018-10-21T08:03:47.925Z,11.00
2018-10-21T08:06:38.624Z,11.01
2018-10-21T08:09:08.627Z,11.00
2018-10-21T08:11:37.688Z,11.03
2018-10-21T08:14:06.586Z,11.12
2018-10-21T08:16:35.526Z,11.16
2018-10-21T08:19:04.415Z,11.18
2018-10-21T08:21:33.288Z,11.34
2018-10-21T08:24:02.302Z,11.35
2018-10-21T08:26:31.188Z,11.30
2018-10-21T08:29:00.080Z,11.47
2018-10-21T08:31:28.990Z,11.54
2018-10-21T08:33:57.895Z,11.64
2018-10-21T08:36:26.803Z,11.60
2018-10-21T08:38:55.714Z,11.67
2018-10-21T08:41:24.602Z,11.71
2018-10-21T08:43:53.552Z,11.88
2018-10-21T08:46:22.602Z,11.83
2018-10-21T08:48:51.495Z,11.94
2018-10-21T08:51:20.404Z,12.07
2018-10-21T08:53:49.313Z,12.05
2018-10-21T08:56:18.278Z,11.98
2018-10-21T08:58:47.161Z,12.04
2018-10-21T09:01:16.116Z,12.07
2018-10-21T09:03:44.938Z,12.13
2018-10-21T09:06:14.172Z,12.19
2018-10-21T09:08:43.034Z,12.30
2018-10-21T09:11:11.936Z,12.40
2018-10-21T09:13:40.843Z,12.42
2018-10-21T09:16:09.828Z,12.46
2018-10-21T09:18:38.634Z,12.65
2018-10-21T09:21:07.552Z,12.73
2018-10-21T09:23:36.436Z,12.69
2018-10-21T09:26:05.394Z,12.60
2018-10-21T09:28:34.300Z,12.79
2018-10-21T09:31:03.287Z,12.82
2018-10-21T09:33:32.154Z,12.82
2018-10-21T09:36:01.117Z,12.97
2018-10-21T09:38:30.043Z,12.93
2018-10-21T09:40:58.952Z,12.94
2018-10-21T09:43:27.912Z,13.01
2018-10-21T09:45:56.828Z,13.20
2018-10-21T09:48:25.764Z,13.17
2018-10-21T09:50:54.674Z,13.22
2018-10-21T09:53:23.759Z,13.29
2018-10-21T09:55:52.643Z,13.39
2018-10-21T09:58:21.613Z,13.49
2018-10-21T10:00:55.980Z,13.44
2018-10-21T10:03:24.870Z,13.43
2018-10-21T10:05:53.747Z,13.55
2018-10-21T10:08:22.663Z,13.42
2018-10-21T10:10:51.562Z,13.58
2018-10-21T10:13:20.563Z,13.59
2018-10-21T10:15:49.472Z,13.62
2018-10-21T10:18:18.379Z,13.62
2018-10-21T10:20:47.320Z,13.58
2018-10-21T10:23:16.221Z,13.73
2018-10-21T10:25:45.127Z,13.80
2018-10-21T10:28:14.169Z,13.98
2018-10-21T10:30:43.004Z,13.95
2018-10-21T10:33:12.137Z,13.81
2018-10-21T10:35:42.018Z,14.11
2018-10-21T10:38:10.920Z,14.06
2018-10-21T10:40:39.856Z,14.02
2018-10-21T10:43:08.971Z,14.08
2018-10-21T10:45:37.811Z,14.13
2018-10-21T10:48:06.743Z,13.98
2018-10-21T10:50:35.673Z,14.12
2018-10-21T10:53:04.749Z,14.27
2018-10-21T10:55:52.118Z,14.17
2018-10-21T10:58:21.154Z,14.37
2018-10-21T11:00:50.074Z,14.53
2018-10-21T11:03:19.023Z,14.59
2018-10-21T11:05:48.040Z,14.52
2018-10-21T11:08:16.831Z,14.71
2018-10-21T11:10:45.794Z,14.63
2018-10-21T11:13:14.839Z,14.59
2018-10-21T11:15:43.734Z,14.65
2018-10-21T11:18:12.629Z,14.78
2018-10-21T11:20:41.533Z,14.75
2018-10-21T11:23:10.437Z,14.67
2018-10-21T11:25:39.344Z,14.62
2018-10-21T11:28:08.307Z,14.68
2018-10-21T11:30:37.182Z,14.65
2018-10-21T11:33:06.492Z,14.70
2018-10-21T11:35:35.378Z,14.77
2018-10-21T11:38:05.167Z,14.78
2018-10-21T11:40:34.032Z,14.85
2018-10-21T11:43:03.074Z,14.99
2018-10-21T11:45:32.049Z,15.02
2018-10-21T11:48:00.996Z,14.93
2018-10-21T11:50:29.884Z,14.98
2018-10-21T11:52:58.769Z,15.11
2018-10-21T11:55:31.854Z,15.02
2018-10-21T11:58:00.811Z,15.02
2018-10-21T12:00:29.720Z,15.16
2018-10-21T12:02:58.639Z,14.93
2018-10-21T12:05:27.619Z,15.10
2018-10-21T12:07:56.528Z,15.02
2018-10-21T12:10:25.480Z,14.99
2018-10-21T12:12:54.736Z,15.09
2018-10-21T12:15:23.687Z,15.10
2018-10-21T12:17:52.627Z,15.13
2018-10-21T12:20:21.533Z,15.21
2018-10-21T12:22:50.540Z,15.24
2018-10-21T12:25:20.346Z,15.21
2018-10-21T12:27:49.118Z,15.30
2018-10-21T12:30:18.032Z,15.25
2018-10-21T12:32:46.982Z,15.26
2018-10-21T12:35:15.959Z,15.24
2018-10-21T12:37:44.802Z,15.29
2018-10-21T12:40:13.795Z,15.38
2018-10-21T12:42:42.645Z,15.52
2018-10-21T12:45:12.165Z,15.37
2018-10-21T12:47:41.072Z,15.62
2018-10-21T12:50:10.049Z,15.69
2018-10-21T12:52:38.915Z,15.78
2018-10-21T12:55:09.025Z,15.65
2018-10-21T12:57:37.817Z,15.65
2018-10-21T13:00:07.710Z,15.72
2018-10-21T13:02:36.766Z,15.68
2018-10-21T13:05:06.455Z,15.61
2018-10-21T13:07:35.344Z,15.64
2018-10-21T13:10:04.254Z,15.66
2018-10-21T13:12:33.252Z,15.79
2018-10-21T13:15:02.232Z,15.72
2018-10-21T13:17:31.197Z,15.68
2018-10-21T13:20:00.106Z,15.70
2018-10-21T13:22:28.989Z,15.82
2018-10-21T13:24:57.916Z,15.79
2018-10-21T13:27:26.811Z,15.84
2018-10-21T13:29:55.737Z,15.68
2018-10-21T13:32:24.619Z,15.74
2018-10-21T13:34:53.506Z,15.72
2018-10-21T13:37:22.402Z,15.81
2018-10-21T13:39:51.784Z,15.73
2018-10-21T13:42:20.700Z,15.69
2018-10-21T13:44:49.604Z,15.71
2018-10-21T13:47:18.496Z,15.74
2018-10-21T13:49:47.361Z,15.62
2018-10-21T13:52:16.678Z,15.73
2018-10-21T13:54:45.553Z,15.77
2018-10-21T13:57:14.430Z,15.67
2018-10-21T13:59:43.352Z,15.70
2018-10-21T14:02:12.242Z,15.73
2018-10-21T14:04:41.169Z,15.66
2018-10-21T14:07:10.146Z,15.69
2018-10-21T14:09:39.026Z,15.70
2018-10-21T14:12:07.919Z,15.72
2018-10-21T14:14:36.808Z,15.78
2018-10-21T14:17:05.762Z,15.74
2018-10-21T14:19:34.675Z,15.75
2018-10-21T14:22:03.593Z,15.74
2018-10-21T14:24:32.772Z,15.69
2018-10-21T14:27:01.613Z,15.77
2018-10-21T14:29:30.576Z,15.68
2018-10-21T14:31:59.510Z,15.68
2018-10-21T14:34:28.362Z,15.69
2018-10-21T14:36:57.490Z,15.74
2018-10-21T14:39:26.400Z,15.70
2018-10-21T14:41:55.362Z,15.68
2018-10-21T14:44:24.282Z,15.64
2018-10-21T14:46:53.231Z,15.76
2018-10-21T14:49:22.172Z,15.73
2018-10-21T14:51:51.059Z,15.72
2018-10-21T14:54:20.039Z,15.70
2018-10-21T14:56:49.025Z,15.73
2018-10-21T14:59:17.953Z,15.70
2018-10-21T15:01:46.923Z,15.60
2018-10-21T15:04:15.925Z,15.60
2018-10-21T15:06:44.858Z,15.61
2018-10-21T15:09:14.553Z,15.66
2018-10-21T15:11:43.591Z,15.59
2018-10-21T15:14:12.835Z,15.65
2018-10-21T15:16:41.761Z,15.65
2018-10-21T15:19:10.705Z,15.70
2018-10-21T15:21:39.649Z,15.56
2018-10-21T15:24:08.555Z,15.58
2018-10-21T15:26:37.523Z,15.59
2018-10-21T15:29:06.551Z,15.61
2018-10-21T15:31:35.598Z,15.54
2018-10-21T15:34:04.619Z,15.56
2018-10-21T15:36:33.449Z,15.58
2018-10-21T15:39:02.402Z,15.54
2018-10-21T15:41:31.304Z,15.57
2018-10-21T15:44:00.245Z,15.57
2018-10-21T15:46:29.205Z,15.48
2018-10-21T15:48:58.245Z,15.50
2018-10-21T15:51:27.027Z,15.45
2018-10-21T15:53:55.949Z,15.45
2018-10-21T15:56:24.849Z,15.41
2018-10-21T15:58:53.786Z,15.40
2018-10-21T16:01:22.689Z,15.45
2018-10-21T16:03:51.653Z,15.29
2018-10-21T16:06:20.578Z,15.39
2018-10-21T16:08:49.524Z,15.43
2018-10-21T16:11:18.385Z,15.46
2018-10-21T16:13:47.385Z,15.39
2018-10-21T16:16:16.339Z,15.45
2018-10-21T16:18:45.182Z,15.34
2018-10-21T16:21:14.157Z,15.45
2018-10-21T16:23:43.184Z,15.38
2018-10-21T16:26:12.089Z,15.39
2018-10-21T16:28:40.976Z,15.34
2018-10-21T16:31:09.915Z,15.26
2018-10-21T16:33:38.875Z,15.34
2018-10-21T16:36:07.810Z,15.15
2018-10-21T16:38:36.715Z,15.29
2018-10-21T16:41:06.073Z,15.30
2018-10-21T16:43:35.001Z,15.17
2018-10-21T16:46:03.909Z,15.21
2018-10-21T16:48:32.824Z,15.15
2018-10-21T16:51:02.347Z,15.15
2018-10-21T16:53:31.384Z,15.12
2018-10-21T16:56:00.199Z,15.22
2018-10-21T16:58:29.681Z,15.18
2018-10-21T17:00:58.721Z,15.19
2018-10-21T17:03:27.580Z,15.15
2018-10-21T17:05:56.525Z,15.02
2018-10-21T17:08:25.717Z,15.07
2018-10-21T17:10:55.736Z,14.98
2018-10-21T17:13:24.571Z,14.90
2018-10-21T17:15:53.512Z,14.94
2018-10-21T17:18:22.415Z,15.02
2018-10-21T17:20:51.355Z,15.02
2018-10-21T17:23:20.303Z,14.96
2018-10-21T17:25:49.208Z,15.07
2018-10-21T17:28:18.168Z,15.03
2018-10-21T17:30:47.144Z,14.90
2018-10-21T17:33:16.318Z,14.86
2018-10-21T17:35:45.214Z,14.94
2018-10-21T17:38:14.177Z,15.03
2018-10-21T17:40:43.198Z,15.03
2018-10-21T17:43:12.098Z,15.01
2018-10-21T17:45:40.947Z,15.04
2018-10-21T17:48:09.905Z,14.98
2018-10-21T17:50:38.796Z,14.94
2018-10-21T17:53:07.713Z,14.95
2018-10-21T17:55:36.671Z,14.94
2018-10-21T17:58:05.653Z,14.95
2018-10-21T18:00:34.565Z,14.88
2018-10-21T18:03:03.481Z,14.80
2018-10-21T18:05:32.454Z,14.91
2018-10-21T18:08:01.348Z,14.88
2018-10-21T18:10:30.251Z,14.93
2018-10-21T18:12:59.231Z,15.00
2018-10-21T18:15:28.099Z,14.98
2018-10-21T18:17:57.063Z,14.82
2018-10-21T18:20:26.057Z,14.92
2018-10-21T18:22:54.922Z,14.93
2018-10-21T18:25:23.857Z,14.96
2018-10-21T18:27:52.769Z,14.86
2018-10-21T18:30:21.687Z,14.90
2018-10-21T18:32:50.601Z,14.87
2018-10-21T18:35:19.484Z,14.74
2018-10-21T18:37:48.387Z,14.66
2018-10-21T18:40:17.429Z,14.81
2018-10-21T18:42:46.349Z,14.83
2018-10-21T18:45:15.754Z,14.87
2018-10-21T18:47:45.058Z,14.86
2018-10-21T18:50:15.134Z,14.78
2018-10-21T18:52:44.092Z,14.75
2018-10-21T18:55:13.620Z,14.85
2018-10-21T18:57:42.484Z,14.81
2018-10-21T19:00:13.887Z,14.89
2018-10-21T19:02:43.041Z,14.80
2018-10-21T19:05:12.552Z,14.85
2018-10-21T19:07:41.448Z,14.85
2018-10-21T19:10:12.362Z,14.89
2018-10-21T19:12:41.414Z,14.90
2018-10-21T19:15:11.637Z,14.83
2018-10-21T19:17:40.985Z,14.66
2018-10-21T19:20:12.385Z,14.69
2018-10-21T19:22:41.391Z,14.74
2018-10-21T19:25:11.592Z,14.70
2018-10-21T19:27:40.775Z,14.70
2018-10-21T19:30:10.689Z,14.81
2018-10-21T19:32:39.799Z,14.84
2018-10-21T19:35:09.663Z,14.78
2018-10-21T19:37:38.692Z,14.88
2018-10-21T19:40:08.591Z,14.90
2018-10-21T19:42:37.540Z,14.75
2018-10-21T19:45:07.384Z,14.84
2018-10-21T19:47:36.270Z,14.85
2018-10-21T19:50:05.895Z,14.72
2018-10-21T19:52:34.809Z,14.73
2018-10-21T19:55:03.776Z,14.76
2018-10-21T19:57:32.696Z,14.77
2018-10-21T20:00:01.591Z,14.76
2018-10-21T20:02:30.530Z,14.81
2018-10-21T20:04:59.466Z,14.79
2018-10-21T20:07:28.346Z,14.80
2018-10-21T20:09:57.333Z,14.75
2018-10-21T20:12:26.207Z,14.71
2018-10-21T20:14:55.116Z,14.72
2018-10-21T20:17:24.047Z,14.68
2018-10-21T20:19:52.978Z,14.75
2018-10-21T20:22:21.881Z,14.68
2018-10-21T20:24:50.870Z,14.71
2018-10-21T20:27:19.824Z,14.79
2018-10-21T20:29:48.733Z,14.75
2018-10-21T20:32:17.613Z,14.72
2018-10-21T20:34:46.619Z,14.61
2018-10-21T20:37:15.557Z,14.67
2018-10-21T20:39:44.486Z,14.72
2018-10-21T20:42:13.503Z,14.68
2018-10-21T20:44:42.353Z,14.58
2018-10-21T20:47:11.290Z,14.57
2018-10-21T20:49:40.688Z,14.66
2018-10-21T20:52:09.778Z,14.74
2018-10-21T20:54:43.934Z,14.65
2018-10-21T20:57:12.830Z,14.76
2018-10-21T20:59:42.602Z,14.73
2018-10-21T21:02:12.625Z,14.76
2018-10-21T21:04:41.751Z,14.77
2018-10-21T21:07:11.051Z,14.74
2018-10-21T21:09:40.633Z,14.79
2018-10-21T21:12:09.639Z,14.73
2018-10-21T21:14:38.451Z,14.62
2018-10-21T21:17:07.362Z,14.62
2018-10-21T21:19:36.347Z,14.61
2018-10-21T21:22:05.365Z,14.45
2018-10-21T21:24:34.221Z,14.49
2018-10-21T21:27:03.160Z,14.49
2018-10-21T21:29:32.081Z,14.51
2018-10-21T21:32:00.990Z,14.40
2018-10-21T21:34:29.932Z,14.60
2018-10-21T21:36:58.842Z,14.45
2018-10-21T21:39:27.757Z,14.52
2018-10-21T21:41:56.715Z,14.52
2018-10-21T21:44:25.643Z,14.47
2018-10-21T21:46:54.560Z,14.44
2018-10-21T21:49:23.469Z,14.47
2018-10-21T21:51:52.402Z,14.50
2018-10-21T21:54:21.304Z,14.46
2018-10-21T21:56:50.255Z,14.49
2018-10-21T21:59:19.398Z,14.48
2018-10-21T22:01:48.489Z,14.40
2018-10-21T22:04:17.559Z,14.44
2018-10-21T22:06:46.380Z,14.38
2018-10-21T22:09:15.287Z,14.40
2018-10-21T22:11:44.194Z,14.42
2018-10-21T22:14:13.207Z,14.55
2018-10-21T22:16:42.108Z,14.58
2018-10-21T22:19:11.009Z,14.58
2018-10-21T22:21:39.963Z,14.59
2018-10-21T22:24:11.190Z,14.38
2018-10-21T22:26:42.876Z,14.33
2018-10-21T22:29:16.322Z,14.33
2018-10-21T22:31:45.323Z,14.30
2018-10-21T22:34:14.349Z,14.40
2018-10-21T22:36:43.217Z,14.25
2018-10-21T22:39:12.137Z,14.36
2018-10-21T22:41:41.041Z,14.43
2018-10-21T22:44:09.949Z,14.42
2018-10-21T22:46:38.922Z,14.33
2018-10-21T22:49:08.038Z,14.31
2018-10-21T22:51:36.957Z,14.30
2018-10-21T22:54:05.922Z,14.34
2018-10-21T22:56:34.815Z,14.25
2018-10-21T22:59:03.762Z,14.31
2018-10-21T23:01:32.687Z,14.32
2018-10-21T23:04:01.628Z,14.25
2018-10-21T23:06:30.504Z,14.27
2018-10-21T23:08:59.432Z,14.34
2018-10-21T23:11:28.342Z,14.26
2018-10-21T23:13:57.213Z,14.31
2018-10-21T23:16:26.110Z,14.21
2018-10-21T23:19:45.516Z,14.37
2018-10-21T23:22:14.527Z,14.21
2018-10-21T23:24:43.397Z,14.25
2018-10-21T23:27:12.871Z,14.36
2018-10-21T23:29:42.542Z,14.32
2018-10-21T23:32:11.447Z,14.12
2018-10-21T23:34:40.318Z,14.02
2018-10-21T23:37:09.317Z,14.19
2018-10-21T23:39:38.223Z,14.33
2018-10-21T23:42:07.195Z,14.23
2018-10-21T23:44:36.138Z,14.30
2018-10-21T23:47:05.179Z,14.30
2018-10-21T23:49:34.124Z,13.99
2018-10-21T23:52:03.541Z,14.08
2018-10-21T23:54:32.507Z,14.16
2018-10-21T23:57:04.275Z,14.21
2018-10-21T23:59:33.545Z,14.28
